Forside
METAR-TAF:

METAR-TAF

Lufthavne :

Lomé, Togo

Breddekreds: 06-10N, længdekreds: 001-15E, højde: 20 m

Aktuelle vejr

Denne rapport blev lavet for 1 time og 14 minutter siden, kl. 15:00 UTC
Vind 15 kt fra sydsydvest
Temperatur 31°C
Fugtighed 71%
Tryk 1009 hPa
Sigt 10 km eller mere
Nogle få skyer i en højde af 1400 ft

METAR: DXXX 031500Z 20015KT 9999 FEW014 31/25 Q1009 NOSIG

Tid: 16:14 (16:14 UTC)

Vejrudsigter

Denne rapport blev lavet for 5 timer og 14 minutter siden, kl. 11:00 UTC
Foreløbig gælder fra 03 på 12 UTC til 04 på 18 UTC
Vind 12 kt fra sydsydvest
Sigt 10 km eller mere
Nogle få skyer i en højde af 1400 ft
Midlertidig
fra 03 på 17 UTC til 03 på 22 UTC
Brudte skyer i en højde af 1000 ft
Nogle få skyer i en højde af 2000 ft, Cumulonimbus.
ændring
fra 03 på 22 UTC til 03 på 24 UTC
Vind 5 kt fra vest

TAF: DXXX 031100Z 0312/0418 20012KT 9999 FEW014 TEMPO 0317/0322 BKN010 FEW020CB BECMG 0322/0324 26005KT

Vejrobservationer og prognoser fra mere end 4000 lufthavne (METAR og TAF).

De gule og røde prikker repræsenterer de meteorologiske stationer.

Flyt musen over at se navnet på stationen.

Så klik over at se vejr observationer og prognoser.

At skifte det kort: Klik på de grønne knapper med et sort kors for at zoome ind; på den grønne knap med en bindestreg for at zoome ud; eller på de grønne pile for tilstødende kort.


METAR-TAF: